Terminal Aerodrome Forecast
Issued by NWS Shreveport, LA

Home | Current Version | Previous Version | Text Only | Print | Product List | Glossary On
Versions: 1 2 3 4 5 6 7 8 9 10 11 12 13 14 15
828
FTUS44 KSHV 281129
TAFELD
TAF
KELD 281129Z 2812/2912 01003KT P6SM FEW004
      TEMPO 2812/2814 3SM BR BKN004
     FM281400 03008KT P6SM SCT035 OVC100
     FM290000 05004KT P6SM SCT250=

USA.gov is the U.S. government's official web portal to all federal, state and local government web resources and services.